Ocracoke, NC (27960)

6:25 PM EDT on July 29, 2016 (GMT -0400)
Sunset Dr | | Change Station

Elev 16 ft 35.11 °N, 75.97 °W | Updated 6 minutes ago

Partly Cloudy
Partly Cloudy
86.9 °F
Feels Like 101 °F
N
1.9
Wind Variable Wind from NW

Today
High -- | Low -- °F
--% Chance of Precip.
Yesterday
High -- | Low -- °F
Precip. -- in
Pressure 29.88 in
Visibility 10.0 miles
Clouds Few 8000 ft
Heat Index 101 °F
Dew Point 78 °F
Humidity 78%
Rainfall Not available.
Snow Depth Not available.
6:11 AM 8:09 PM
Waning Crescent, 18% visible
METAR KHSE 292151Z AUTO 23010KT 10SM FEW080 29/26 A2988 RMK AO2 SLP119 T02890261 TSNO
Pressure 29.88 in
Visibility 10.0 miles
Clouds Few 8000 ft
Heat Index 101 °F
Dew Point 78 °F
Humidity 78%
Rainfall Not available.
Snow Depth Not available.
6:11 AM 8:09 PM
Waning Crescent, 18% visible
METAR KHSE 292151Z AUTO 23010KT 10SM FEW080 29/26 A2988 RMK AO2 SLP119 T02890261 TSNO

10-Day Weather Forecast

Almanac

Astronomy

Jul. 29, 2016 Rise Set
Actual Time
Civil Twilight
Nautical Twilight
Astronomical Twilight
Moon
Length of Visible Light
Length of Day
Tomorrow will be .
, % of the Moon is Illuminated

Today's Extremes

State Highs State Lows

Community

WunderPhotos

Upload Photos

1,928,436 photos uploaded!

WunderBlog® & News

Nearby

Air Quality

  Air Quality AQ Index Pollutant
Not available.

Snow Depth

Station Depth Elevation

Earthquake Activity

City Distance Mag. Time & Date
Minimum magnitude displayed is 2.5.

Coastal Water Temperatures

Place Temperature

Stations

Nearby Weather Stations

Station Location Temp. Windchill Dew Point Humidity Wind Precip. Elev Updated Type
                   

Watches & Warnings

There are currently no watches in effect.